createdAt,value
2022-08-26T05:05:10.926Z,97184.38
2022-08-26T05:15:13.121Z,97187.69
2022-08-26T05:25:15.504Z,97201.53
2022-08-26T05:35:18.136Z,97196.50
2022-08-26T05:45:24.330Z,97202.63
2022-08-26T05:55:26.756Z,97205.28
2022-08-26T06:05:29.465Z,97193.41
2022-08-26T06:15:31.691Z,97180.44
2022-08-26T06:25:38.676Z,97178.28
2022-08-26T06:35:42.661Z,97178.47
2022-08-26T06:45:46.050Z,97179.91
2022-08-26T06:55:51.757Z,97179.16
2022-08-26T07:05:54.293Z,97179.22
2022-08-26T07:15:58.307Z,97176.09
2022-08-26T07:26:07.646Z,97163.91
2022-08-26T07:36:12.100Z,97149.25
2022-08-26T07:46:20.730Z,97148.88
2022-08-26T07:56:29.682Z,97145.59
2022-08-26T08:06:32.644Z,97140.34
2022-08-26T08:16:36.433Z,97151.50
2022-08-26T08:26:40.470Z,97130.66
2022-08-26T08:36:42.916Z,97119.16
2022-08-26T08:46:51.487Z,97114.56
2022-08-26T08:57:04.041Z,97107.91
2022-08-26T09:07:18.724Z,97095.66
2022-08-26T09:17:45.584Z,97087.34
2022-08-26T09:27:51.534Z,97080.19
2022-08-26T09:37:53.879Z,97076.63
2022-08-26T09:48:01.225Z,97069.44
2022-08-26T09:58:04.845Z,97050.66
2022-08-26T10:08:24.890Z,97042.22
2022-08-26T10:18:34.073Z,97027.34
2022-08-26T10:29:15.724Z,97019.25
2022-08-26T10:39:31.085Z,97012.69
2022-08-26T10:49:33.247Z,97006.75
2022-08-26T10:59:53.488Z,96993.50
2022-08-26T11:09:56.742Z,96980.88
2022-08-26T11:20:03.889Z,96996.28
2022-08-26T11:30:14.172Z,97013.88
2022-08-26T11:43:59.871Z,97004.94
2022-08-26T11:54:30.560Z,96991.00
2022-08-26T12:04:42.559Z,96998.50
2022-08-26T12:14:45.216Z,96979.38
2022-08-26T12:24:51.870Z,96956.84
2022-08-26T12:34:55.354Z,96943.00
2022-08-26T12:45:06.717Z,96920.66
2022-08-26T12:55:24.755Z,96911.63
2022-08-26T13:05:33.384Z,96887.78
2022-08-26T13:15:35.828Z,96887.78
2022-08-26T13:25:38.169Z,96879.75
2022-08-26T13:35:40.860Z,96857.53
2022-08-26T13:45:43.562Z,96857.88
2022-08-26T13:55:45.980Z,96852.00
2022-08-26T14:05:48.254Z,96848.50
2022-08-26T14:15:51.759Z,96860.91
2022-08-26T14:25:54.553Z,96886.09
2022-08-26T16:15:25.262Z,96887.06
2022-08-26T16:25:29.024Z,96862.25
2022-08-26T16:35:31.654Z,96868.03
2022-08-26T16:45:38.706Z,96874.13
2022-08-26T16:55:46.163Z,96876.47
2022-08-26T17:05:48.514Z,96865.06
2022-08-26T17:15:54.410Z,96863.13
2022-08-26T17:26:00.717Z,96854.66
2022-08-26T17:36:04.649Z,96866.91
2022-08-26T17:46:08.543Z,96864.75
2022-08-26T17:56:14.186Z,96872.03
2022-08-26T18:06:17.126Z,96934.13
2022-08-26T18:16:20.597Z,96913.28
2022-08-26T18:26:29.568Z,96923.69
2022-08-26T18:36:36.034Z,97005.53
2022-08-26T18:46:39.216Z,97063.13
2022-08-26T18:56:42.523Z,97004.38
2022-08-26T19:06:47.524Z,96973.34
2022-08-26T19:16:52.629Z,96968.53
2022-08-26T19:26:57.900Z,96924.72
2022-08-26T19:37:00.362Z,96909.56
2022-08-26T19:47:03.931Z,96941.94
2022-08-26T19:57:06.672Z,96891.63
2022-08-26T20:07:09.795Z,96892.41
2022-08-26T20:17:12.038Z,96888.75
2022-08-26T20:27:15.686Z,96912.38
2022-08-26T20:40:13.526Z,96922.88
2022-08-26T20:50:15.887Z,96920.47
2022-08-26T21:00:22.960Z,96911.94
2022-08-26T21:10:30.598Z,96903.84
2022-08-26T21:20:33.191Z,96892.31
2022-08-26T21:30:38.432Z,96886.56
2022-08-26T21:40:40.848Z,96891.50
2022-08-26T21:50:43.211Z,96889.00
2022-08-26T22:10:11.095Z,96897.72
2022-08-26T22:20:16.583Z,96891.75
2022-08-26T22:30:20.181Z,96884.47
2022-08-26T22:40:22.577Z,96889.69
2022-08-26T22:50:25.670Z,96891.00
2022-08-26T23:00:32.008Z,96888.78
2022-08-26T23:10:37.006Z,96888.97
2022-08-26T23:20:40.217Z,96879.59
2022-08-26T23:30:43.075Z,96875.66
2022-08-26T23:40:47.944Z,96870.47
2022-08-26T23:51:10.105Z,96862.47
